Wetterdaten: aktuell Sonntag, 22.07.2018 13:59
Datum Zeit Temperatur Luftfeuchte Luftdruck Regen Wind Richtung Richtung Taupunkt Windchill
22.07.2018 13:59 22,3 C 48 % 1014 hPa 0,0 mm 2,4 km/h (1 Bft) W-NW67.5 300 10,8 C 22,3 C
22.07.2018 13:54 22,4 C 49 % 1014 hPa 0,0 mm 1,6 km/h (1 Bft) SW67.5 235 11,2 C 22,4 C
22.07.2018 13:49 22,3 C 48 % 1014 hPa 0,0 mm 6,1 km/h (2 Bft) NW22.5 320 10,8 C 22,3 C
22.07.2018 13:44 22,3 C 47 % 1014 hPa 0,0 mm 9,8 km/h (2 Bft) NW22.5 320 10,4 C 21,2 C
22.07.2018 13:39 22,3 C 47 % 1014 hPa 0,0 mm 0,4 km/h (0 Bft) N 350 10,4 C 22,3 C
22.07.2018 13:34 22,4 C 46 % 1014 hPa 0,0 mm 6,3 km/h (2 Bft) W 260 10,2 C 22,4 C
22.07.2018 13:29 22,3 C 48 % 1014 hPa 0,0 mm 2,2 km/h (1 Bft) S-SW22.5 200 10,8 C 22,3 C
22.07.2018 13:24 21,9 C 48 % 1014 hPa 0,0 mm 0,9 km/h (0 Bft) NW45 325 10,4 C 21,9 C
22.07.2018 13:19 21,8 C 49 % 1014 hPa 0,0 mm 9,7 km/h (2 Bft) NW45 320 10,6 C 20,7 C
22.07.2018 13:14 21,8 C 50 % 1014 hPa 0,0 mm 9,0 km/h (2 Bft) W-SW67.5 240 10,9 C 20,9 C
22.07.2018 13:09 21,7 C 52 % 1014 hPa 0,0 mm 1,0 km/h (0 Bft) W-SW67.5 250 11,4 C 21,7 C
22.07.2018 13:04 21,7 C 53 % 1014 hPa 0,0 mm 4,5 km/h (1 Bft) SW22.5 225 11,7 C 21,7 C
22.07.2018 12:59 21,5 C 52 % 1014 hPa 0,0 mm 8,2 km/h (2 Bft) W-SW67.5 245 11,2 C 20,9 C
22.07.2018 12:54 21,2 C 52 % 1014 hPa 0,0 mm 0,0 km/h (0 Bft) S 185 10,9 C 21,2 C
22.07.2018 12:49 21,2 C 52 % 1014 hPa 0,0 mm 0,0 km/h (0 Bft) S 185 10,9 C 21,2 C
22.07.2018 12:44 21,1 C 52 % 1014 hPa 0,0 mm 0,4 km/h (0 Bft) W-SW67.5 245 10,9 C 21,1 C
22.07.2018 12:39 21,0 C 54 % 1014 hPa 0,0 mm 0,7 km/h (0 Bft) W45 270 11,3 C 21,0 C
22.07.2018 12:34 20,9 C 56 % 1014 hPa 0,0 mm 5,4 km/h (1 Bft) SW67.5 235 11,8 C 20,9 C
22.07.2018 12:29 20,7 C 58 % 1014 hPa 0,0 mm 8,6 km/h (2 Bft) W-SW67.5 250 12,1 C 19,9 C
22.07.2018 12:24 20,6 C 60 % 1014 hPa 0,0 mm 9,5 km/h (2 Bft) W67.5 270 12,6 C 19,5 C
22.07.2018 12:19 20,5 C 60 % 1014 hPa 0,0 mm 8,6 km/h (2 Bft) W67.5 270 12,5 C 19,7 C
22.07.2018 12:15 20,5 C 60 % 1015 hPa 0,0 mm 8,4 km/h (2 Bft) W-NW67.5 295 12,5 C 19,7 C
22.07.2018 12:10 20,5 C 60 % 1015 hPa 0,0 mm 6,8 km/h (2 Bft) W-SW22.5 255 12,5 C 20,3 C
22.07.2018 12:04 20,6 C 58 % 1015 hPa 0,0 mm 10,1 km/h (2 Bft) W67.5 270 12,0 C 19,3 C
22.07.2018 11:59 20,6 C 58 % 1015 hPa 0,0 mm 6,6 km/h (2 Bft) W-SW45 250 12,0 C 20,5 C
22.07.2018 11:54 20,5 C 58 % 1015 hPa 0,0 mm 10,5 km/h (2 Bft) W-NW22.5 290 11,9 C 19,0 C
22.07.2018 11:49 20,5 C 58 % 1015 hPa 0,0 mm 9,6 km/h (2 Bft) NW67.5 305 11,9 C 19,3 C
22.07.2018 11:44 20,5 C 61 % 1014 hPa 0,0 mm 12,0 km/h (2 Bft) SW67.5 215 12,7 C 18,6 C
22.07.2018 11:39 20,5 C 60 % 1014 hPa 0,0 mm 9,7 km/h (2 Bft) W67.5 275 12,5 C 19,3 C
22.07.2018 11:34 20,5 C 61 % 1015 hPa 0,0 mm 6,2 km/h (2 Bft) W67.5 275 12,7 C 20,5 C
22.07.2018 11:29 20,4 C 62 % 1014 hPa 0,0 mm 6,2 km/h (2 Bft) W67.5 275 12,9 C 20,4 C
22.07.2018 11:24 20,1 C 62 % 1015 hPa 0,0 mm 10,1 km/h (2 Bft) NW45 310 12,6 C 18,7 C
22.07.2018 11:19 20,1 C 63 % 1015 hPa 0,0 mm 7,4 km/h (2 Bft) W67.5 260 12,8 C 19,7 C
22.07.2018 11:14 20,0 C 65 % 1015 hPa 0,0 mm 13,0 km/h (3 Bft) W-NW67.5 290 13,2 C 17,8 C
22.07.2018 11:09 19,9 C 68 % 1014 hPa 0,0 mm 5,4 km/h (1 Bft) NW22.5 310 13,8 C 19,9 C
22.07.2018 11:04 19,8 C 68 % 1014 hPa 0,0 mm 8,7 km/h (2 Bft) W-NW67.5 285 13,7 C 18,9 C
22.07.2018 10:59 19,9 C 71 % 1014 hPa 0,0 mm 1,8 km/h (1 Bft) W67.5 275 14,5 C 19,9 C
22.07.2018 10:54 19,8 C 71 % 1014 hPa 0,0 mm 7,4 km/h (2 Bft) W-SW67.5 250 14,4 C 19,4 C
22.07.2018 10:49 19,8 C 73 % 1014 hPa 0,0 mm 3,4 km/h (1 Bft) SW67.5 230 14,8 C 19,8 C
22.07.2018 10:44 19,3 C 75 % 1014 hPa 0,0 mm 3,0 km/h (1 Bft) S-SW 205 14,8 C 19,3 C
22.07.2018 10:39 19,1 C 75 % 1014 hPa 0,0 mm 4,0 km/h (1 Bft) S67.5 185 14,6 C 19,1 C
22.07.2018 10:34 18,9 C 76 % 1014 hPa 0,0 mm 7,4 km/h (2 Bft) W-NW45 290 14,6 C 18,5 C
22.07.2018 10:29 18,9 C 78 % 1014 hPa 0,0 mm 3,5 km/h (1 Bft) W-SW45 245 15,0 C 18,9 C
22.07.2018 10:24 18,5 C 80 % 1014 hPa 0,0 mm 3,4 km/h (1 Bft) N-NW45 330 15,0 C 18,5 C
22.07.2018 10:19 18,5 C 80 % 1014 hPa 0,0 mm 1,2 km/h (1 Bft) S-SW22.5 205 15,0 C 18,5 C
22.07.2018 10:14 18,3 C 82 % 1014 hPa 0,0 mm 0,4 km/h (0 Bft) SW22.5 220 15,2 C 18,3 C
22.07.2018 10:09 18,2 C 83 % 1014 hPa 0,0 mm 0,2 km/h (0 Bft) S22.5 175 15,3 C 18,2 C
22.07.2018 10:04 18,1 C 83 % 1014 hPa 0,0 mm 0,9 km/h (0 Bft) NO67.5 35 15,2 C 18,1 C
22.07.2018 09:59 18,0 C 86 % 1014 hPa 0,0 mm 0,6 km/h (0 Bft) S-SO 150 15,6 C 18,0 C
22.07.2018 09:54 17,8 C 88 % 1014 hPa 0,0 mm 0,6 km/h (0 Bft) SO 140 15,8 C 17,8 C
22.07.2018 09:49 17,8 C 88 % 1014 hPa 0,0 mm 2,9 km/h (1 Bft) S45 190 15,8 C 17,8 C
22.07.2018 09:44 17,6 C 90 % 1014 hPa 0,0 mm 5,0 km/h (1 Bft) SW67.5 215 15,9 C 17,6 C
22.07.2018 09:39 17,5 C 92 % 1014 hPa 0,0 mm 0,9 km/h (0 Bft) W-SW67.5 255 16,2 C 17,5 C
22.07.2018 09:34 17,3 C 94 % 1014 hPa 0,0 mm 2,5 km/h (1 Bft) S-SW22.5 205 16,3 C 17,3 C
22.07.2018 09:29 17,1 C 95 % 1014 hPa 0,0 mm 0,0 km/h (0 Bft) W-SW 245 16,3 C 17,1 C
22.07.2018 09:24 17,0 C 97 % 1014 hPa 0,0 mm 3,4 km/h (1 Bft) SW22.5 230 16,5 C 17,0 C
22.07.2018 09:19 16,8 C 98 % 1014 hPa 0,0 mm 0,6 km/h (0 Bft) S 170 16,5 C 16,8 C
22.07.2018 09:14 16,7 C 98 % 1014 hPa 0,0 mm 0,0 km/h (0 Bft) SO 140 16,4 C 16,7 C
22.07.2018 09:09 16,6 C 98 % 1014 hPa 0,0 mm 0,7 km/h (0 Bft) O-SO22.5 110 16,3 C 16,6 C
22.07.2018 09:04 16,5 C 98 % 1014 hPa 0,0 mm 0,3 km/h (0 Bft) S-SW67.5 195 16,2 C 16,5 C
22.07.2018 08:59 16,4 C 98 % 1014 hPa 0,0 mm 0,6 km/h (0 Bft) W45 270 16,1 C 16,4 C
22.07.2018 08:54 16,3 C 99 % 1014 hPa 0,0 mm 6,1 km/h (2 Bft) W67.5 275 16,1 C 16,3 C
22.07.2018 08:49 16,2 C 99 % 1014 hPa 0,0 mm 6,1 km/h (2 Bft) W67.5 275 16,0 C 16,2 C
22.07.2018 08:44 16,2 C 99 % 1014 hPa 0,0 mm 2,4 km/h (1 Bft) SW45 225 16,0 C 16,2 C
22.07.2018 08:39 16,1 C 99 % 1014 hPa 0,0 mm 5,3 km/h (1 Bft) W45 265 15,9 C 16,1 C
22.07.2018 08:34 16,1 C 99 % 1014 hPa 0,0 mm 3,3 km/h (1 Bft) W22.5 260 15,9 C 16,1 C
22.07.2018 08:29 16,0 C 99 % 1014 hPa 0,0 mm 0,1 km/h (0 Bft) W 270 15,8 C 16,0 C
22.07.2018 08:24 16,0 C 99 % 1014 hPa 0,0 mm 0,8 km/h (0 Bft) W 280 15,8 C 16,0 C
22.07.2018 08:19 15,9 C 99 % 1014 hPa 0,0 mm 4,0 km/h (1 Bft) W22.5 275 15,7 C 15,9 C
22.07.2018 08:14 15,9 C 99 % 1014 hPa 0,0 mm 3,6 km/h (1 Bft) W22.5 280 15,7 C 15,9 C
22.07.2018 08:09 15,8 C 100 % 1014 hPa 0,0 mm 1,6 km/h (1 Bft) W22.5 265 15,8 C 15,8 C
22.07.2018 08:04 15,8 C 100 % 1014 hPa 0,0 mm 3,3 km/h (1 Bft) W 275 15,8 C 15,8 C
22.07.2018 07:59 15,8 C 100 % 1014 hPa 0,0 mm 0,3 km/h (0 Bft) W 275 15,8 C 15,8 C
22.07.2018 07:54 15,8 C 99 % 1014 hPa 0,0 mm 4,7 km/h (1 Bft) W45 280 15,6 C 15,8 C
22.07.2018 07:49 15,9 C 99 % 1014 hPa 0,0 mm 3,7 km/h (1 Bft) W 275 15,7 C 15,9 C
22.07.2018 07:44 16,0 C 96 % 1014 hPa 0,0 mm 1,0 km/h (0 Bft) W22.5 275 15,4 C 16,0 C
22.07.2018 07:39 16,0 C 96 % 1014 hPa 0,0 mm 0,4 km/h (0 Bft) SW67.5 220 15,4 C 16,0 C
22.07.2018 07:34 16,2 C 95 % 1014 hPa 0,0 mm 0,6 km/h (0 Bft) S67.5 175 15,4 C 16,2 C
22.07.2018 07:29 16,4 C 94 % 1014 hPa 0,0 mm 0,6 km/h (0 Bft) S67.5 175 15,4 C 16,4 C
22.07.2018 07:24 16,4 C 93 % 1014 hPa 0,0 mm 0,3 km/h (0 Bft) SW 220 15,3 C 16,4 C
22.07.2018 07:19 16,4 C 93 % 1014 hPa 0,0 mm 0,0 km/h (0 Bft) W 265 15,3 C 16,4 C
22.07.2018 07:14 16,5 C 92 % 1014 hPa 0,0 mm 0,0 km/h (0 Bft) W 265 15,2 C 16,5 C
22.07.2018 07:09 16,7 C 90 % 1014 hPa 0,0 mm 0,0 km/h (0 Bft) W 260 15,0 C 16,7 C
22.07.2018 07:04 16,9 C 89 % 1014 hPa 0,0 mm 0,0 km/h (0 Bft) W 260 15,1 C 16,9 C
22.07.2018 06:59 17,3 C 88 % 1014 hPa 0,0 mm 0,0 km/h (0 Bft) W 265 15,3 C 17,3 C
22.07.2018 06:54 17,3 C 89 % 1013 hPa 0,0 mm 0,0 km/h (0 Bft) W 265 15,5 C 17,3 C
22.07.2018 06:49 17,1 C 90 % 1013 hPa 0,0 mm 0,0 km/h (0 Bft) W 260 15,4 C 17,1 C
22.07.2018 06:44 17,0 C 90 % 1013 hPa 0,0 mm 0,0 km/h (0 Bft) W 260 15,3 C 17,0 C
22.07.2018 06:39 16,8 C 93 % 1013 hPa 0,0 mm 0,0 km/h (0 Bft) W 265 15,7 C 16,8 C
22.07.2018 06:34 16,7 C 93 % 1013 hPa 0,0 mm 0,0 km/h (0 Bft) W 265 15,6 C 16,7 C
22.07.2018 06:29 16,7 C 94 % 1013 hPa 0,0 mm 0,0 km/h (0 Bft) W 265 15,7 C 16,7 C
22.07.2018 06:24 16,6 C 94 % 1013 hPa 0,0 mm 0,3 km/h (0 Bft) W 265 15,6 C 16,6 C
22.07.2018 06:19 16,5 C 94 % 1013 hPa 0,4 mm 0,9 km/h (0 Bft) W-SW22.5 250 15,5 C 16,5 C
22.07.2018 06:14 16,5 C 94 % 1013 hPa 0,0 mm 2,9 km/h (1 Bft) SW22.5 230 15,5 C 16,5 C
22.07.2018 06:09 16,4 C 95 % 1013 hPa 0,4 mm 3,8 km/h (1 Bft) W45 270 15,6 C 16,4 C
22.07.2018 06:04 16,2 C 94 % 1013 hPa 0,4 mm 0,4 km/h (0 Bft) S-SW67.5 200 15,2 C 16,2 C
22.07.2018 05:59 16,3 C 93 % 1013 hPa 1,1 mm 5,6 km/h (1 Bft) N-NW22.5 330 15,2 C 16,3 C
22.07.2018 05:54 16,5 C 90 % 1013 hPa 0,0 mm 6,7 km/h (2 Bft) NW45 315 14,9 C 16,4 C
22.07.2018 05:49 16,7 C 89 % 1013 hPa 0,0 mm 0,9 km/h (0 Bft) W45 280 14,9 C 16,7 C
22.07.2018 05:44 16,8 C 89 % 1013 hPa 0,0 mm 0,8 km/h (0 Bft) NW67.5 310 15,0 C 16,8 C
22.07.2018 05:39 16,9 C 89 % 1013 hPa 0,0 mm 0,5 km/h (0 Bft) W-NW22.5 290 15,1 C 16,9 C
22.07.2018 05:34 17,0 C 88 % 1013 hPa 0,0 mm 3,8 km/h (1 Bft) W22.5 275 15,0 C 17,0 C
22.07.2018 05:29 17,1 C 88 % 1013 hPa 0,0 mm 4,9 km/h (1 Bft) W22.5 260 15,1 C 17,1 C
22.07.2018 05:24 17,0 C 88 % 1013 hPa 0,0 mm 0,1 km/h (0 Bft) W 280 15,0 C 17,0 C
22.07.2018 05:19 17,0 C 88 % 1013 hPa 0,0 mm 3,2 km/h (1 Bft) W22.5 270 15,0 C 17,0 C
22.07.2018 05:14 17,0 C 88 % 1013 hPa 0,0 mm 4,3 km/h (1 Bft) W45 275 15,0 C 17,0 C
22.07.2018 05:09 17,0 C 89 % 1013 hPa 0,0 mm 4,7 km/h (1 Bft) W-NW 290 15,2 C 17,0 C
22.07.2018 05:04 17,0 C 89 % 1013 hPa 0,0 mm 4,2 km/h (1 Bft) W 275 15,2 C 17,0 C
22.07.2018 04:59 16,8 C 92 % 1013 hPa 0,0 mm 3,4 km/h (1 Bft) NW22.5 305 15,5 C 16,8 C
22.07.2018 04:54 16,9 C 92 % 1013 hPa 0,0 mm 0,7 km/h (0 Bft) W22.5 275 15,6 C 16,9 C
22.07.2018 04:49 16,7 C 92 % 1013 hPa 0,0 mm 0,6 km/h (0 Bft) W 275 15,4 C 16,7 C
22.07.2018 04:44 16,7 C 92 % 1013 hPa 0,0 mm 0,3 km/h (0 Bft) W-NW 295 15,4 C 16,7 C
22.07.2018 04:39 16,8 C 90 % 1013 hPa 0,0 mm 0,1 km/h (0 Bft) NW 310 15,1 C 16,8 C
22.07.2018 04:34 16,9 C 90 % 1013 hPa 0,0 mm 0,3 km/h (0 Bft) W-NW22.5 285 15,2 C 16,9 C
22.07.2018 04:29 17,1 C 89 % 1013 hPa 0,0 mm 0,4 km/h (0 Bft) W-NW22.5 290 15,3 C 17,1 C
22.07.2018 04:24 17,2 C 88 % 1013 hPa 0,0 mm 3,4 km/h (1 Bft) W-NW22.5 285 15,2 C 17,2 C
22.07.2018 04:19 17,2 C 89 % 1013 hPa 0,0 mm 4,5 km/h (1 Bft) W 270 15,4 C 17,2 C
22.07.2018 04:14 17,3 C 89 % 1013 hPa 0,0 mm 4,3 km/h (1 Bft) W22.5 260 15,5 C 17,3 C
22.07.2018 04:09 17,3 C 89 % 1013 hPa 0,0 mm 2,8 km/h (1 Bft) W-NW22.5 295 15,5 C 17,3 C
22.07.2018 04:04 17,3 C 89 % 1013 hPa 0,0 mm 4,3 km/h (1 Bft) W22.5 275 15,5 C 17,3 C
22.07.2018 03:59 17,2 C 89 % 1013 hPa 0,0 mm 0,7 km/h (0 Bft) W-NW45 285 15,4 C 17,2 C
22.07.2018 03:54 17,3 C 89 % 1013 hPa 0,0 mm 1,0 km/h (0 Bft) NW22.5 305 15,5 C 17,3 C
22.07.2018 03:49 17,4 C 90 % 1013 hPa 0,0 mm 5,1 km/h (1 Bft) W-NW22.5 285 15,7 C 17,4 C
22.07.2018 03:44 17,3 C 90 % 1013 hPa 0,0 mm 4,3 km/h (1 Bft) W45 270 15,6 C 17,3 C
22.07.2018 03:39 17,3 C 90 % 1013 hPa 0,0 mm 2,8 km/h (1 Bft) W-NW22.5 290 15,6 C 17,3 C
22.07.2018 03:34 17,3 C 92 % 1013 hPa 0,0 mm 1,3 km/h (1 Bft) W45 275 16,0 C 17,3 C
22.07.2018 03:29 17,3 C 92 % 1013 hPa 0,0 mm 3,7 km/h (1 Bft) W-NW 290 16,0 C 17,3 C
22.07.2018 03:24 17,3 C 92 % 1013 hPa 0,0 mm 3,7 km/h (1 Bft) W22.5 270 16,0 C 17,3 C
22.07.2018 03:19 17,4 C 92 % 1013 hPa 0,0 mm 0,1 km/h (0 Bft) W-SW 250 16,1 C 17,4 C
22.07.2018 03:14 17,5 C 90 % 1013 hPa 0,0 mm 0,0 km/h (0 Bft) W-SW 250 15,8 C 17,5 C
22.07.2018 03:09 17,5 C 90 % 1013 hPa 0,0 mm 0,0 km/h (0 Bft) W-SW 250 15,8 C 17,5 C
22.07.2018 03:04 17,5 C 90 % 1013 hPa 0,0 mm 0,0 km/h (0 Bft) W-SW 250 15,8 C 17,5 C
22.07.2018 02:59 17,5 C 90 % 1013 hPa 0,0 mm 0,0 km/h (0 Bft) W-SW 250 15,8 C 17,5 C
22.07.2018 02:54 17,6 C 90 % 1013 hPa 0,0 mm 0,0 km/h (0 Bft) W-SW 250 15,9 C 17,6 C
22.07.2018 02:49 17,7 C 90 % 1013 hPa 0,0 mm 0,0 km/h (0 Bft) W-SW 250 16,0 C 17,7 C
22.07.2018 02:44 17,8 C 90 % 1013 hPa 0,0 mm 0,0 km/h (0 Bft) W-SW 250 16,1 C 17,8 C
22.07.2018 02:39 17,8 C 90 % 1013 hPa 0,0 mm 0,0 km/h (0 Bft) W-SW 250 16,1 C 17,8 C
22.07.2018 02:34 17,8 C 90 % 1013 hPa 0,0 mm 0,0 km/h (0 Bft) W-SW 250 16,1 C 17,8 C
22.07.2018 02:29 17,7 C 92 % 1013 hPa 0,0 mm 0,0 km/h (0 Bft) W-SW 250 16,4 C 17,7 C
22.07.2018 02:24 17,7 C 92 % 1013 hPa 0,0 mm 0,0 km/h (0 Bft) W-SW 250 16,4 C 17,7 C
22.07.2018 02:19 17,6 C 92 % 1013 hPa 0,0 mm 0,0 km/h (0 Bft) W-SW 250 16,3 C 17,6 C
22.07.2018 02:14 17,6 C 92 % 1013 hPa 0,0 mm 0,1 km/h (0 Bft) W-SW 250 16,3 C 17,6 C
22.07.2018 02:09 17,6 C 92 % 1013 hPa 0,0 mm 0,2 km/h (0 Bft) W-SW 250 16,3 C 17,6 C
22.07.2018 02:04 17,6 C 92 % 1013 hPa 0,0 mm 1,9 km/h (1 Bft) W-SW 250 16,3 C 17,6 C
22.07.2018 01:59 17,5 C 92 % 1013 hPa 0,0 mm 0,0 km/h (0 Bft) W-SW 250 16,2 C 17,5 C
22.07.2018 01:54 17,6 C 92 % 1013 hPa 0,0 mm 0,0 km/h (0 Bft) W-SW 250 16,3 C 17,6 C
22.07.2018 01:49 17,6 C 92 % 1013 hPa 0,0 mm 0,0 km/h (0 Bft) W-SW 250 16,3 C 17,6 C
22.07.2018 01:44 17,7 C 92 % 1013 hPa 0,0 mm 0,0 km/h (0 Bft) W-SW 250 16,4 C 17,7 C
22.07.2018 01:39 17,7 C 92 % 1013 hPa 0,0 mm 0,1 km/h (0 Bft) W-SW 250 16,4 C 17,7 C
22.07.2018 01:34 17,8 C 92 % 1014 hPa 0,0 mm 0,3 km/h (0 Bft) W-SW 250 16,5 C 17,8 C
22.07.2018 01:29 17,7 C 92 % 1014 hPa 0,0 mm 0,3 km/h (0 Bft) W-SW22.5 250 16,4 C 17,7 C
22.07.2018 01:24 17,7 C 92 % 1014 hPa 0,0 mm 0,0 km/h (0 Bft) S 170 16,4 C 17,7 C
22.07.2018 01:19 17,7 C 92 % 1014 hPa 0,0 mm 0,0 km/h (0 Bft) S 170 16,4 C 17,7 C
22.07.2018 01:14 17,7 C 93 % 1014 hPa 0,0 mm 2,7 km/h (1 Bft) SO22.5 145 16,6 C 17,7 C
22.07.2018 01:09 17,7 C 93 % 1014 hPa 0,0 mm 0,0 km/h (0 Bft) O-SO 120 16,6 C 17,7 C
22.07.2018 01:04 17,6 C 93 % 1014 hPa 0,0 mm 0,0 km/h (0 Bft) O-SO 120 16,5 C 17,6 C
22.07.2018 00:59 17,6 C 93 % 1014 hPa 0,0 mm 0,0 km/h (0 Bft) O-SO 120 16,5 C 17,6 C
22.07.2018 00:54 17,7 C 93 % 1014 hPa 0,0 mm 0,0 km/h (0 Bft) O-SO 120 16,6 C 17,7 C
22.07.2018 00:49 17,7 C 93 % 1014 hPa 0,0 mm 0,1 km/h (0 Bft) O-SO 120 16,6 C 17,7 C
22.07.2018 00:44 17,7 C 94 % 1014 hPa 0,0 mm 0,1 km/h (0 Bft) O-SO 115 16,7 C 17,7 C
22.07.2018 00:39 17,5 C 94 % 1014 hPa 0,0 mm 0,6 km/h (0 Bft) O-SO 115 16,5 C 17,5 C
22.07.2018 00:34 17,5 C 94 % 1014 hPa 0,0 mm 0,0 km/h (0 Bft) O-SO 115 16,5 C 17,5 C
22.07.2018 00:29 17,5 C 94 % 1014 hPa 0,0 mm 0,2 km/h (0 Bft) W-NW45 295 16,5 C 17,5 C
22.07.2018 00:24 17,5 C 94 % 1014 hPa 0,0 mm 0,6 km/h (0 Bft) N-NO45 20 16,5 C 17,5 C
22.07.2018 00:19 17,4 C 94 % 1014 hPa 0,0 mm 0,9 km/h (0 Bft) S-SW 195 16,4 C 17,4 C
22.07.2018 00:14 17,5 C 94 % 1014 hPa 0,0 mm 0,3 km/h (0 Bft) S-SW67.5 210 16,5 C 17,5 C
22.07.2018 00:09 17,5 C 94 % 1014 hPa 0,4 mm 4,2 km/h (1 Bft) W-SW22.5 250 16,5 C 17,5 C
22.07.2018 00:04 17,6 C 94 % 1014 hPa 0,0 mm 0,3 km/h (0 Bft) W 275 16,6 C 17,6 C
21.07.2018 23:59 17,5 C 94 % 1014 hPa 0,0 mm 3,2 km/h (1 Bft) SW45 235 16,5 C 17,5 C
21.07.2018 23:54 17,7 C 94 % 1014 hPa 0,0 mm 1,3 km/h (1 Bft) SW67.5 235 16,7 C 17,7 C
21.07.2018 23:49 17,8 C 94 % 1014 hPa 0,0 mm 0,7 km/h (0 Bft) W67.5 260 16,8 C 17,8 C
21.07.2018 23:44 17,7 C 94 % 1014 hPa 0,0 mm 3,9 km/h (1 Bft) S-SW45 200 16,7 C 17,7 C
21.07.2018 23:39 17,7 C 94 % 1014 hPa 0,0 mm 0,8 km/h (0 Bft) W67.5 260 16,7 C 17,7 C
21.07.2018 23:34 17,9 C 94 % 1014 hPa 0,0 mm 2,2 km/h (1 Bft) S-SO22.5 165 16,9 C 17,9 C
21.07.2018 23:29 17,8 C 94 % 1014 hPa 0,0 mm 0,3 km/h (0 Bft) SO 140 16,8 C 17,8 C
21.07.2018 23:24 17,9 C 94 % 1014 hPa 0,0 mm 1,2 km/h (1 Bft) SO22.5 145 16,9 C 17,9 C
21.07.2018 23:19 17,9 C 95 % 1014 hPa 0,0 mm 3,3 km/h (1 Bft) SO22.5 145 17,1 C 17,9 C
21.07.2018 23:14 18,0 C 94 % 1014 hPa 0,0 mm 3,0 km/h (1 Bft) S-SO22.5 155 17,0 C 18,0 C
21.07.2018 23:09 17,9 C 96 % 1014 hPa 0,0 mm 4,6 km/h (1 Bft) SO 140 17,3 C 17,9 C
21.07.2018 23:04 17,9 C 96 % 1014 hPa 0,0 mm 0,1 km/h (0 Bft) SO 140 17,3 C 17,9 C
21.07.2018 22:59 17,9 C 96 % 1014 hPa 0,0 mm 4,2 km/h (1 Bft) S-SO22.5 150 17,3 C 17,9 C
21.07.2018 22:54 17,9 C 96 % 1014 hPa 0,0 mm 0,4 km/h (0 Bft) S-SW 200 17,3 C 17,9 C
21.07.2018 22:49 17,9 C 97 % 1014 hPa 0,0 mm 0,0 km/h (0 Bft) S-SW 210 17,4 C 17,9 C
21.07.2018 22:44 17,7 C 97 % 1014 hPa 0,0 mm 0,3 km/h (0 Bft) S-SW 205 17,2 C 17,7 C
21.07.2018 22:39 17,8 C 97 % 1014 hPa 0,4 mm 0,4 km/h (0 Bft) S-SW 205 17,3 C 17,8 C
21.07.2018 22:34 17,8 C 97 % 1014 hPa 0,0 mm 0,1 km/h (0 Bft) S-SO 165 17,3 C 17,8 C
21.07.2018 22:29 17,8 C 97 % 1014 hPa 0,0 mm 0,3 km/h (0 Bft) S 170 17,3 C 17,8 C
21.07.2018 22:24 17,8 C 97 % 1014 hPa 0,0 mm 0,0 km/h (0 Bft) S-SO 165 17,3 C 17,8 C
21.07.2018 22:19 17,8 C 97 % 1013 hPa 0,0 mm 0,3 km/h (0 Bft) O-SO 115 17,3 C 17,8 C
21.07.2018 22:14 17,9 C 97 % 1013 hPa 0,0 mm 3,6 km/h (1 Bft) S-SW22.5 205 17,4 C 17,9 C
21.07.2018 22:09 17,9 C 97 % 1013 hPa 0,0 mm 0,2 km/h (0 Bft) S-SW 205 17,4 C 17,9 C
21.07.2018 22:04 17,8 C 97 % 1013 hPa 0,0 mm 0,0 km/h (0 Bft) S-SW 210 17,3 C 17,8 C
21.07.2018 21:59 17,9 C 99 % 1013 hPa 0,0 mm 0,4 km/h (0 Bft) S-SW 205 17,7 C 17,9 C
21.07.2018 21:54 17,8 C 99 % 1013 hPa 0,0 mm 0,0 km/h (0 Bft) SO 140 17,6 C 17,8 C
21.07.2018 21:49 17,8 C 99 % 1013 hPa 0,0 mm 0,0 km/h (0 Bft) SO 140 17,6 C 17,8 C
21.07.2018 21:44 17,7 C 99 % 1013 hPa 0,0 mm 0,0 km/h (0 Bft) SO 140 17,5 C 17,7 C
21.07.2018 21:39 17,5 C 99 % 1013 hPa 0,0 mm 0,0 km/h (0 Bft) SO 140 17,3 C 17,5 C
21.07.2018 21:34 17,4 C 99 % 1013 hPa 0,0 mm 0,0 km/h (0 Bft) SO 140 17,2 C 17,4 C
21.07.2018 21:29 17,5 C 99 % 1013 hPa 0,0 mm 0,0 km/h (0 Bft) SO 140 17,3 C 17,5 C
21.07.2018 21:24 17,5 C 97 % 1013 hPa 0,4 mm 0,0 km/h (0 Bft) SO 140 17,0 C 17,5 C
21.07.2018 21:19 17,6 C 97 % 1013 hPa 0,0 mm 0,0 km/h (0 Bft) SO 140 17,1 C 17,6 C
21.07.2018 21:14 17,6 C 97 % 1013 hPa 0,0 mm 0,0 km/h (0 Bft) SO 140 17,1 C 17,6 C
21.07.2018 21:09 17,6 C 96 % 1013 hPa 0,0 mm 0,0 km/h (0 Bft) SO 140 17,0 C 17,6 C
21.07.2018 21:04 17,7 C 96 % 1013 hPa 0,0 mm 0,0 km/h (0 Bft) SO 140 17,1 C 17,7 C
21.07.2018 20:59 17,7 C 95 % 1013 hPa 0,0 mm 0,0 km/h (0 Bft) SO 140 16,9 C 17,7 C
21.07.2018 20:54 17,8 C 95 % 1013 hPa 0,0 mm 0,3 km/h (0 Bft) SO 135 17,0 C 17,8 C
21.07.2018 20:49 17,9 C 94 % 1013 hPa 0,0 mm 0,3 km/h (0 Bft) SO 135 16,9 C 17,9 C
21.07.2018 20:44 18,0 C 93 % 1013 hPa 0,0 mm 0,6 km/h (0 Bft) SO 140 16,8 C 18,0 C
21.07.2018 20:39 18,0 C 93 % 1013 hPa 0,0 mm 3,9 km/h (1 Bft) SO22.5 135 16,8 C 18,0 C
21.07.2018 20:34 18,1 C 93 % 1013 hPa 0,0 mm 0,6 km/h (0 Bft) S45 180 16,9 C 18,1 C
21.07.2018 20:29 18,1 C 92 % 1013 hPa 0,0 mm 3,1 km/h (1 Bft) SO 145 16,8 C 18,1 C
21.07.2018 20:24 18,1 C 92 % 1013 hPa 0,0 mm 0,1 km/h (0 Bft) S-SO 150 16,8 C 18,1 C
21.07.2018 20:19 18,3 C 92 % 1013 hPa 0,0 mm 0,0 km/h (0 Bft) S-SO 150 17,0 C 18,3 C
21.07.2018 20:14 18,3 C 92 % 1013 hPa 0,0 mm 0,1 km/h (0 Bft) SO 145 17,0 C 18,3 C
21.07.2018 20:09 18,3 C 92 % 1013 hPa 0,0 mm 2,9 km/h (1 Bft) SO 140 17,0 C 18,3 C
21.07.2018 20:04 18,3 C 92 % 1013 hPa 0,0 mm 2,8 km/h (1 Bft) SO 140 17,0 C 18,3 C
21.07.2018 19:59 18,3 C 92 % 1013 hPa 0,0 mm 0,0 km/h (0 Bft) SO 135 17,0 C 18,3 C
21.07.2018 19:54 18,3 C 92 % 1013 hPa 0,0 mm 2,7 km/h (1 Bft) SO22.5 140 17,0 C 18,3 C
21.07.2018 19:49 18,3 C 92 % 1013 hPa 0,0 mm 3,8 km/h (1 Bft) SO22.5 135 17,0 C 18,3 C
21.07.2018 19:44 18,3 C 92 % 1013 hPa 0,0 mm 0,6 km/h (0 Bft) O-SO 120 17,0 C 18,3 C
21.07.2018 19:39 18,3 C 92 % 1013 hPa 0,0 mm 0,4 km/h (0 Bft) S 175 17,0 C 18,3 C
21.07.2018 19:34 18,2 C 92 % 1013 hPa 0,0 mm 0,2 km/h (0 Bft) S 180 16,9 C 18,2 C
21.07.2018 19:29 18,1 C 92 % 1013 hPa 0,0 mm 0,0 km/h (0 Bft) S 180 16,8 C 18,1 C
21.07.2018 19:24 18,1 C 90 % 1013 hPa 0,0 mm 0,0 km/h (0 Bft) S 180 16,4 C 18,1 C
21.07.2018 19:19 18,1 C 90 % 1013 hPa 0,0 mm 0,1 km/h (0 Bft) S 175 16,4 C 18,1 C
21.07.2018 19:14 18,1 C 90 % 1013 hPa 0,0 mm 0,7 km/h (0 Bft) S-SW22.5 200 16,4 C 18,1 C
21.07.2018 19:09 18,1 C 90 % 1013 hPa 0,0 mm 1,2 km/h (1 Bft) S-SW67.5 200 16,4 C 18,1 C
21.07.2018 19:04 18,2 C 90 % 1013 hPa 0,0 mm 0,1 km/h (0 Bft) W-SW 255 16,5 C 18,2 C
21.07.2018 18:59 18,2 C 90 % 1013 hPa 0,0 mm 0,0 km/h (0 Bft) SW 230 16,5 C 18,2 C
21.07.2018 18:54 18,2 C 90 % 1013 hPa 0,0 mm 0,9 km/h (0 Bft) W-SW45 245 16,5 C 18,2 C
21.07.2018 18:49 18,3 C 90 % 1013 hPa 0,0 mm 3,9 km/h (1 Bft) W-SW45 240 16,6 C 18,3 C
21.07.2018 18:44 18,3 C 90 % 1013 hPa 0,0 mm 2,9 km/h (1 Bft) SW 230 16,6 C 18,3 C
21.07.2018 18:39 18,3 C 89 % 1013 hPa 0,0 mm 2,9 km/h (1 Bft) SW 230 16,5 C 18,3 C
21.07.2018 18:34 18,4 C 89 % 1013 hPa 0,0 mm 4,8 km/h (1 Bft) W45 260 16,6 C 18,4 C
21.07.2018 18:29 18,5 C 92 % 1013 hPa 0,0 mm 0,7 km/h (0 Bft) S-SO67.5 150 17,2 C 18,5 C
21.07.2018 18:24 18,5 C 93 % 1013 hPa 0,0 mm 5,6 km/h (1 Bft) S-SO67.5 165 17,3 C 18,5 C
21.07.2018 18:19 18,5 C 93 % 1013 hPa 0,0 mm 3,7 km/h (1 Bft) S67.5 175 17,3 C 18,5 C
21.07.2018 18:14 18,5 C 92 % 1013 hPa 0,0 mm 5,4 km/h (1 Bft) SW67.5 220 17,2 C 18,5 C
21.07.2018 18:09 18,5 C 89 % 1013 hPa 0,0 mm 6,0 km/h (2 Bft) S45 170 16,7 C 18,5 C
21.07.2018 18:04 18,5 C 90 % 1013 hPa 0,0 mm 5,7 km/h (1 Bft) SW67.5 225 16,8 C 18,5 C
21.07.2018 17:59 18,6 C 90 % 1013 hPa 0,0 mm 2,4 km/h (1 Bft) W-SW67.5 240 16,9 C 18,6 C
21.07.2018 17:54 18,5 C 90 % 1013 hPa 0,0 mm 2,4 km/h (1 Bft) W-SW67.5 240 16,8 C 18,5 C
21.07.2018 17:49 18,5 C 90 % 1013 hPa 0,0 mm 2,4 km/h (1 Bft) W-SW67.5 240 16,8 C 18,5 C
21.07.2018 17:44 18,5 C 92 % 1013 hPa 0,0 mm 2,4 km/h (1 Bft) W-SW67.5 240 17,2 C 18,5 C
21.07.2018 17:39 18,7 C 92 % 1013 hPa 0,0 mm 2,4 km/h (1 Bft) W-SW67.5 240 17,4 C 18,7 C
21.07.2018 17:34 18,8 C 92 % 1013 hPa 0,0 mm 5,0 km/h (1 Bft) S-SW67.5 195 17,5 C 18,8 C
21.07.2018 17:29 18,9 C 93 % 1013 hPa 0,0 mm 7,9 km/h (2 Bft) S67.5 190 17,7 C 18,2 C
21.07.2018 17:24 18,9 C 93 % 1013 hPa 0,0 mm 5,8 km/h (2 Bft) S67.5 185 17,7 C 18,9 C
21.07.2018 17:19 18,7 C 93 % 1013 hPa 0,0 mm 7,1 km/h (2 Bft) S-SO45 150 17,5 C 18,4 C
21.07.2018 17:14 18,6 C 92 % 1013 hPa 0,0 mm 4,3 km/h (1 Bft) SO45 140 17,3 C 18,6 C
21.07.2018 17:09 18,7 C 92 % 1013 hPa 0,0 mm 4,0 km/h (1 Bft) S67.5 170 17,4 C 18,7 C
21.07.2018 17:04 18,6 C 90 % 1013 hPa 0,0 mm 2,4 km/h (1 Bft) W-SW45 250 16,9 C 18,6 C
21.07.2018 16:59 18,6 C 90 % 1013 hPa 0,0 mm 7,5 km/h (2 Bft) S67.5 185 16,9 C 18,1 C
21.07.2018 16:54 18,7 C 89 % 1013 hPa 0,0 mm 0,5 km/h (0 Bft) S-SO 165 16,8 C 18,7 C
21.07.2018 16:49 18,7 C 89 % 1013 hPa 0,0 mm 3,1 km/h (1 Bft) S-SO22.5 165 16,8 C 18,7 C
21.07.2018 16:44 18,7 C 89 % 1013 hPa 0,0 mm 3,2 km/h (1 Bft) S45 170 16,8 C 18,7 C
21.07.2018 16:39 18,7 C 88 % 1013 hPa 0,0 mm 3,9 km/h (1 Bft) S45 180 16,7 C 18,7 C
21.07.2018 16:34 18,8 C 88 % 1013 hPa 0,0 mm 5,6 km/h (1 Bft) S-SO22.5 160 16,8 C 18,8 C
21.07.2018 16:29 18,8 C 87 % 1013 hPa 0,0 mm 3,9 km/h (1 Bft) W22.5 260 16,6 C 18,8 C
21.07.2018 16:24 19,1 C 88 % 1013 hPa 0,0 mm 1,8 km/h (1 Bft) S-SO45 150 17,1 C 19,1 C
21.07.2018 16:19 19,0 C 87 % 1013 hPa 0,0 mm 0,3 km/h (0 Bft) SW 235 16,8 C 19,0 C
21.07.2018 16:14 19,1 C 88 % 1013 hPa 0,0 mm 2,8 km/h (1 Bft) S 170 17,1 C 19,1 C
21.07.2018 16:09 19,0 C 86 % 1013 hPa 0,0 mm 2,6 km/h (1 Bft) SO 135 16,6 C 19,0 C
21.07.2018 16:04 18,9 C 87 % 1013 hPa 0,0 mm 0,7 km/h (0 Bft) S-SO22.5 150 16,7 C 18,9 C
21.07.2018 15:59 18,9 C 86 % 1013 hPa 0,0 mm 0,0 km/h (0 Bft) S-SO 155 16,5 C 18,9 C
21.07.2018 15:54 18,8 C 86 % 1013 hPa 0,0 mm 1,6 km/h (1 Bft) S-SO 150 16,4 C 18,8 C
21.07.2018 15:49 18,8 C 86 % 1013 hPa 0,0 mm 0,0 km/h (0 Bft) S-SO 150 16,4 C 18,8 C
21.07.2018 15:44 18,8 C 85 % 1013 hPa 0,0 mm 0,0 km/h (0 Bft) S-SO 150 16,2 C 18,8 C
21.07.2018 15:39 18,8 C 86 % 1013 hPa 0,0 mm 0,0 km/h (0 Bft) S-SO 150 16,4 C 18,8 C
21.07.2018 15:34 18,8 C 86 % 1013 hPa 0,0 mm 0,0 km/h (0 Bft) S-SO 150 16,4 C 18,8 C
21.07.2018 15:29 18,7 C 87 % 1013 hPa 0,0 mm 0,0 km/h (0 Bft) S-SO 150 16,5 C 18,7 C
21.07.2018 15:24 18,6 C 88 % 1013 hPa 0,0 mm 2,4 km/h (1 Bft) S-SO 150 16,6 C 18,6 C
21.07.2018 15:19 18,5 C 89 % 1013 hPa 0,0 mm 0,0 km/h (0 Bft) W 260 16,7 C 18,5 C
21.07.2018 15:14 18,3 C 89 % 1013 hPa 0,0 mm 6,1 km/h (2 Bft) N-NW22.5 330 16,5 C 18,3 C
21.07.2018 15:09 18,3 C 87 % 1013 hPa 0,0 mm 5,0 km/h (1 Bft) N-NW22.5 340 16,1 C 18,3 C
21.07.2018 15:04 18,5 C 85 % 1013 hPa 0,4 mm 0,3 km/h (0 Bft) NW 325 15,9 C 18,5 C
21.07.2018 14:59 18,6 C 85 % 1013 hPa 0,0 mm 0,4 km/h (0 Bft) N-NW22.5 340 16,0 C 18,6 C
21.07.2018 14:54 18,9 C 84 % 1013 hPa 0,4 mm 0,0 km/h (0 Bft) N-NW 345 16,1 C 18,9 C
21.07.2018 14:49 19,0 C 81 % 1013 hPa 0,4 mm 0,0 km/h (0 Bft) N-NW22.5 335 15,7 C 19,0 C
21.07.2018 14:44 19,2 C 80 % 1013 hPa 0,0 mm 0,3 km/h (0 Bft) W22.5 260 15,7 C 19,2 C
21.07.2018 14:39 19,3 C 80 % 1013 hPa 0,4 mm 0,0 km/h (0 Bft) W-SW 255 15,8 C 19,3 C
21.07.2018 14:34 19,4 C 78 % 1013 hPa 1,1 mm 0,1 km/h (0 Bft) SW22.5 230 15,5 C 19,4 C
21.07.2018 14:29 19,5 C 75 % 1013 hPa 1,5 mm 3,0 km/h (1 Bft) S22.5 190 14,9 C 19,5 C
21.07.2018 14:25 19,7 C 74 % 1013 hPa 2,6 mm 0,4 km/h (0 Bft) W-SW22.5 250 14,9 C 19,7 C
21.07.2018 14:20 20,0 C 69 % 1013 hPa 0,0 mm 0,7 km/h (0 Bft) W67.5 280 14,1 C 20,0 C
21.07.2018 14:15 20,2 C 69 % 1013 hPa 0,0 mm 3,1 km/h (1 Bft) N-NW45 330 14,3 C 20,2 C
21.07.2018 14:10 20,1 C 69 % 1013 hPa 0,0 mm 4,1 km/h (1 Bft) S-SO45 160 14,2 C 20,1 C
21.07.2018 14:05 19,9 C 71 % 1013 hPa 0,0 mm 4,5 km/h (1 Bft) S-SW67.5 200 14,5 C 19,9 C
_ Min-Zeit 07:54 13:34 14:05 - 14:39 - - 13:34 07:54
Minimum _ 15,8 C 46 % 1013 hPa - 0,0 km/h (0 Bft) - - 10,2 C 15,8 C
_ Max-Zeit 13:34 07:59 11:14 14:25 11:14 - - 17:24 13:34
Maximum _ 22,4 C 100 % 1015 hPa 2,6 mm 13,0 km/h
W-NW (3 Bft)
- - 17,7 C 22,4 C
Durchschnitt _ 18,3 C 85 % 1014 hPa #10,0 mm 2,4 km/h (1 Bft) W - 15,6 C 18,2 C